createdAt,value
2022-11-22T00:00:43.459Z,100409.47
2022-11-22T00:03:20.790Z,100406.00
2022-11-22T00:05:51.262Z,100400.72
2022-11-22T00:08:22.001Z,100398.19
2022-11-22T00:10:52.930Z,100399.81
2022-11-22T00:13:25.262Z,100392.03
2022-11-22T00:16:01.479Z,100400.69
2022-11-22T00:18:32.482Z,100396.31
2022-11-22T00:21:08.924Z,100396.38
2022-11-22T00:23:39.141Z,100394.81
2022-11-22T00:26:13.271Z,100388.09
2022-11-22T00:28:45.815Z,100399.44
2022-11-22T00:31:16.391Z,100417.63
2022-11-22T00:33:48.600Z,100421.94
2022-11-22T00:36:20.072Z,100410.69
2022-11-22T00:38:50.142Z,100416.72
2022-11-22T00:41:20.624Z,100420.16
2022-11-22T00:43:52.999Z,100429.91
2022-11-22T00:46:23.472Z,100426.50
2022-11-22T00:48:53.710Z,100416.84
2022-11-22T00:51:25.000Z,100419.28
2022-11-22T00:53:54.994Z,100425.38
2022-11-22T00:56:25.753Z,100421.06
2022-11-22T00:58:58.232Z,100422.69
2022-11-22T01:01:28.882Z,100419.25
2022-11-22T01:03:59.130Z,100409.84
2022-11-22T01:06:30.553Z,100416.00
2022-11-22T01:09:00.954Z,100420.53
2022-11-22T01:11:31.513Z,100424.06
2022-11-22T01:14:04.003Z,100426.81
2022-11-22T01:16:34.532Z,100432.00
2022-11-22T01:19:04.625Z,100438.66
2022-11-22T01:21:36.071Z,100431.78
2022-11-22T01:24:06.452Z,100429.34
2022-11-22T01:26:37.142Z,100430.94
2022-11-22T01:29:10.032Z,100433.41
2022-11-22T01:31:40.430Z,100444.56
2022-11-22T01:34:10.684Z,100435.97
2022-11-22T01:36:41.081Z,100432.59
2022-11-22T01:39:13.203Z,100425.84
2022-11-22T01:41:43.550Z,100423.13
2022-11-22T01:44:35.392Z,100435.97
2022-11-22T01:47:14.254Z,100432.25
2022-11-22T01:49:50.741Z,100432.25
2022-11-22T01:52:22.801Z,100426.25
2022-11-22T01:54:56.461Z,100424.69
2022-11-22T01:57:33.321Z,100428.97
2022-11-22T02:00:09.392Z,100421.94
2022-11-22T02:02:52.992Z,100440.06
2022-11-22T02:05:29.952Z,100425.28
2022-11-22T02:08:05.953Z,100429.53
2022-11-22T02:10:39.533Z,100423.50
2022-11-22T02:13:12.161Z,100428.66
2022-11-22T02:15:45.981Z,100433.78
2022-11-22T02:18:16.536Z,100433.78
2022-11-22T02:20:47.332Z,100431.25
2022-11-22T02:23:26.028Z,100433.91
2022-11-22T02:25:59.570Z,100436.56
2022-11-22T02:28:34.034Z,100446.97
2022-11-22T02:31:05.550Z,100452.22
2022-11-22T02:33:36.590Z,100446.34
2022-11-22T02:36:10.331Z,100455.06
2022-11-22T02:38:40.783Z,100454.22
2022-11-22T02:41:14.234Z,100441.84
2022-11-22T02:43:48.893Z,100446.13
2022-11-22T02:46:23.881Z,100448.94
2022-11-22T02:48:54.230Z,100444.47
2022-11-22T02:51:24.619Z,100444.50
2022-11-22T02:53:57.103Z,100445.13
2022-11-22T02:56:28.653Z,100439.84
2022-11-22T02:58:59.252Z,100440.78
2022-11-22T03:01:30.916Z,100445.13
2022-11-22T03:04:01.414Z,100442.56
2022-11-22T03:06:32.498Z,100454.69
2022-11-22T03:09:03.376Z,100442.69
2022-11-22T03:11:35.082Z,100438.38
2022-11-22T03:14:05.633Z,100435.69
2022-11-22T03:16:36.692Z,100430.41
2022-11-22T03:19:06.763Z,100427.94
2022-11-22T03:21:36.873Z,100418.38
2022-11-22T03:24:11.074Z,100424.38
2022-11-22T03:26:43.042Z,100420.25
2022-11-22T03:29:13.451Z,100422.97
2022-11-22T03:31:45.303Z,100422.09
2022-11-22T03:34:16.112Z,100422.94
2022-11-22T03:36:46.313Z,100429.06
2022-11-22T03:39:16.809Z,100419.56
2022-11-22T03:41:50.202Z,100414.38
2022-11-22T03:44:20.810Z,100413.50
2022-11-22T03:46:50.963Z,100413.50
2022-11-22T03:49:22.372Z,100416.16
2022-11-22T03:51:52.684Z,100419.69
2022-11-22T03:54:23.226Z,100417.25
2022-11-22T03:56:55.871Z,100417.31
2022-11-22T03:59:26.507Z,100420.03
2022-11-22T04:01:56.664Z,100413.00
2022-11-22T04:04:28.383Z,100408.63
2022-11-22T04:06:58.462Z,100424.28
2022-11-22T04:09:29.348Z,100422.66
2022-11-22T04:12:02.493Z,100423.53
2022-11-22T04:14:52.322Z,100423.53
2022-11-22T04:17:37.043Z,100429.84
2022-11-22T04:20:27.212Z,100433.34
2022-11-22T04:23:02.396Z,100428.22
2022-11-22T04:25:34.840Z,100433.38
2022-11-22T04:28:07.771Z,100432.53
2022-11-22T04:30:59.123Z,100430.75
2022-11-22T04:33:30.352Z,100428.13
2022-11-22T04:36:02.074Z,100422.22
2022-11-22T04:38:32.193Z,100417.03
2022-11-22T04:41:02.783Z,100406.63
2022-11-22T04:43:53.612Z,100414.63
2022-11-22T04:46:24.693Z,100413.78
2022-11-22T04:48:54.873Z,100419.94
2022-11-22T04:51:52.122Z,100425.88
2022-11-22T04:54:22.815Z,100430.13
2022-11-22T04:56:53.384Z,100420.69
2022-11-22T04:59:25.003Z,100406.88
2022-11-22T05:01:56.509Z,100418.19
2022-11-22T05:04:26.583Z,100423.34
2022-11-22T05:06:58.090Z,100425.28
2022-11-22T05:09:28.553Z,100413.97
2022-11-22T05:11:59.561Z,100432.19
2022-11-22T05:14:32.013Z,100432.06
2022-11-22T05:17:02.753Z,100438.22
2022-11-22T05:19:32.813Z,100437.34
2022-11-22T05:22:04.963Z,100426.00
2022-11-22T05:24:33.903Z,100432.03
2022-11-22T05:27:04.263Z,100430.34
2022-11-22T05:29:37.334Z,100429.66
2022-11-22T05:32:07.941Z,100434.88
2022-11-22T05:34:39.643Z,100447.84
2022-11-22T05:37:10.184Z,100444.59
2022-11-22T05:39:40.193Z,100440.25
2022-11-22T05:42:11.535Z,100441.09
2022-11-22T05:44:42.984Z,100442.78
2022-11-22T05:47:13.423Z,100448.94
2022-11-22T05:49:46.372Z,100454.13
2022-11-22T05:52:17.033Z,100449.03
2022-11-22T05:54:47.052Z,100452.53
2022-11-22T05:57:18.648Z,100459.44
2022-11-22T05:59:50.062Z,100463.91
2022-11-22T06:02:20.648Z,100455.34
2022-11-22T06:04:52.748Z,100455.31
2022-11-22T06:07:23.426Z,100450.16
2022-11-22T06:09:53.510Z,100456.06
2022-11-22T06:12:25.249Z,100457.84
2022-11-22T06:14:56.801Z,100457.94
2022-11-22T06:17:28.727Z,100461.50
2022-11-22T06:20:04.224Z,100466.78
2022-11-22T06:22:38.390Z,100474.63
2022-11-22T06:25:11.073Z,100474.66
2022-11-22T06:27:41.759Z,100485.19
2022-11-22T06:30:16.199Z,100481.00
2022-11-22T06:32:46.841Z,100488.00
2022-11-22T06:35:17.219Z,100485.28
2022-11-22T06:37:54.909Z,100483.47
2022-11-22T06:40:27.519Z,100490.41
2022-11-22T06:42:58.751Z,100501.63
2022-11-22T06:45:31.602Z,100498.22
2022-11-22T06:48:02.009Z,100502.56
2022-11-22T06:50:32.231Z,100500.88
2022-11-22T06:53:04.788Z,100496.63
2022-11-22T06:55:50.141Z,100499.22
2022-11-22T06:58:21.578Z,100505.38
2022-11-22T07:00:53.226Z,100507.19
2022-11-22T07:03:24.234Z,100502.84
2022-11-22T07:05:54.888Z,100509.94
2022-11-22T07:08:27.150Z,100512.63
2022-11-22T07:10:57.470Z,100523.13
2022-11-22T07:13:28.080Z,100520.53
2022-11-22T07:16:02.740Z,100522.38
2022-11-22T07:18:33.920Z,100516.28
2022-11-22T07:21:10.925Z,100512.84
2022-11-22T07:23:47.021Z,100517.31
2022-11-22T07:26:18.318Z,100519.97
2022-11-22T07:28:51.170Z,100514.00
2022-11-22T07:31:23.367Z,100508.84
2022-11-22T07:33:53.771Z,100517.59
2022-11-22T07:36:24.826Z,100491.84
2022-11-22T07:38:56.669Z,100534.25
2022-11-22T07:41:26.440Z,100534.34
2022-11-22T07:43:57.154Z,100533.53
2022-11-22T07:46:31.959Z,100532.69
2022-11-22T07:49:03.817Z,100530.06
2022-11-22T07:51:33.936Z,100533.56
2022-11-22T07:54:04.985Z,100537.22
2022-11-22T07:56:36.143Z,100532.97
2022-11-22T07:59:06.782Z,100534.75
2022-11-22T08:01:40.635Z,100514.72
2022-11-22T08:04:11.261Z,100514.81
2022-11-22T08:06:41.505Z,100514.72
2022-11-22T08:09:13.194Z,100526.91
2022-11-22T08:11:43.402Z,100546.97
2022-11-22T08:14:14.133Z,100556.63
2022-11-22T08:16:47.392Z,100554.91
2022-11-22T08:19:18.313Z,100563.56
2022-11-22T08:21:53.913Z,100559.22
2022-11-22T08:24:28.952Z,100568.81
2022-11-22T08:27:00.316Z,100564.50
2022-11-22T08:29:30.756Z,100557.53
2022-11-22T08:32:02.703Z,100568.88
2022-11-22T08:34:35.144Z,100561.13
2022-11-22T08:37:05.502Z,100566.38
2022-11-22T08:39:36.962Z,100559.47
2022-11-22T08:42:08.080Z,100554.38
2022-11-22T08:44:39.620Z,100556.13
2022-11-22T08:47:11.422Z,100560.66
2022-11-22T08:49:41.910Z,100559.75
2022-11-22T08:52:13.983Z,100565.94
2022-11-22T08:54:44.622Z,100552.00
2022-11-22T08:57:15.937Z,100555.59
2022-11-22T08:59:46.711Z,100554.75
2022-11-22T09:02:18.334Z,100556.59
2022-11-22T09:04:50.254Z,100552.25
2022-11-22T09:10:12.115Z,100554.97
2022-11-22T09:12:48.583Z,100553.28
2022-11-22T09:15:19.244Z,100551.53
2022-11-22T09:17:50.954Z,100548.16
2022-11-22T09:20:22.540Z,100554.28
2022-11-22T09:22:52.710Z,100555.28
2022-11-22T09:25:23.183Z,100558.69
2022-11-22T09:27:55.233Z,100552.56
2022-11-22T09:30:25.623Z,100543.03
2022-11-22T09:32:58.990Z,100543.94
2022-11-22T09:35:30.600Z,100552.69
2022-11-22T09:38:01.021Z,100559.69
2022-11-22T09:40:32.003Z,100555.28
2022-11-22T09:43:12.932Z,100563.25
2022-11-22T09:46:10.112Z,100559.03
2022-11-22T09:49:12.302Z,100552.03
2022-11-22T09:51:50.662Z,100555.63
2022-11-22T09:54:26.183Z,100561.69
2022-11-22T09:57:03.311Z,100561.75
2022-11-22T09:59:38.410Z,100554.66
2022-11-22T10:02:19.473Z,100560.75
2022-11-22T10:04:58.933Z,100558.28
2022-11-22T10:07:37.658Z,100558.28
2022-11-22T10:10:14.754Z,100561.69
2022-11-22T10:12:52.352Z,100566.09
2022-11-22T10:15:31.491Z,100554.69
2022-11-22T10:18:07.369Z,100560.00
2022-11-22T10:20:48.588Z,100554.63
2022-11-22T10:23:22.500Z,100577.06
2022-11-22T10:26:01.523Z,100564.72
2022-11-22T10:28:37.481Z,100558.75
2022-11-22T10:31:18.462Z,100559.84
2022-11-22T10:33:56.877Z,100551.25
2022-11-22T10:36:40.190Z,100560.84
2022-11-22T10:39:27.914Z,100561.75
2022-11-22T10:42:23.793Z,100567.97
2022-11-22T10:45:02.742Z,100569.75
2022-11-22T10:47:56.130Z,100565.56
2022-11-22T10:50:34.350Z,100564.78
2022-11-22T10:53:13.292Z,100566.63
2022-11-22T10:55:57.760Z,100569.09
2022-11-22T10:58:38.721Z,100568.31
2022-11-22T11:01:22.056Z,100566.63
2022-11-22T11:04:01.245Z,100577.09
2022-11-22T11:07:04.741Z,100573.56
2022-11-22T11:10:09.717Z,100566.59
2022-11-22T11:12:36.050Z,100561.34
2022-11-22T11:15:15.672Z,100558.66
2022-11-22T11:17:52.413Z,100561.25
2022-11-22T11:20:29.603Z,100551.88
2022-11-22T11:23:14.672Z,100559.88
2022-11-22T11:25:49.942Z,100559.94
2022-11-22T11:28:24.174Z,100556.38
2022-11-22T11:30:57.156Z,100561.44
2022-11-22T11:33:31.856Z,100558.03
2022-11-22T11:36:08.324Z,100556.88
2022-11-22T11:38:50.731Z,100550.81
2022-11-22T11:41:32.655Z,100541.97
2022-11-22T11:44:05.653Z,100542.03
2022-11-22T11:46:49.372Z,100552.41
2022-11-22T11:49:23.001Z,100534.09
2022-11-22T11:52:00.973Z,100536.75
2022-11-22T11:54:42.169Z,100536.66
2022-11-22T11:57:16.156Z,100521.75
2022-11-22T11:59:50.387Z,100516.53
2022-11-22T12:02:25.642Z,100522.63
2022-11-22T12:05:02.795Z,100527.94
2022-11-22T12:07:44.466Z,100528.75
2022-11-22T12:10:37.542Z,100528.81
2022-11-22T12:13:21.393Z,100527.13
2022-11-22T12:15:57.894Z,100528.88
2022-11-22T12:18:40.852Z,100536.66
2022-11-22T12:21:24.377Z,100532.31
2022-11-22T12:24:26.511Z,100533.28
2022-11-22T12:26:51.770Z,100533.34
2022-11-22T12:29:24.327Z,100529.00
2022-11-22T12:31:59.317Z,100544.72
2022-11-22T12:34:35.448Z,100549.06
2022-11-22T12:37:12.233Z,100551.69
2022-11-22T12:39:50.041Z,100550.91
2022-11-22T12:42:27.531Z,100545.75
2022-11-22T12:45:07.691Z,100554.56
2022-11-22T12:47:43.594Z,100553.78
2022-11-22T12:50:24.052Z,100554.72
2022-11-22T12:53:05.475Z,100565.31
2022-11-22T12:55:44.629Z,100568.88
2022-11-22T12:58:24.543Z,100566.25
2022-11-22T13:01:09.189Z,100570.75
2022-11-22T13:03:48.123Z,100566.44
2022-11-22T13:06:27.104Z,100569.16
2022-11-22T13:09:04.508Z,100557.84
2022-11-22T13:11:40.995Z,100555.16
2022-11-22T13:14:20.961Z,100550.00
2022-11-22T13:16:53.703Z,100547.31
2022-11-22T13:19:29.786Z,100544.75
2022-11-22T13:22:17.172Z,100548.13
2022-11-22T13:25:06.128Z,100545.53
2022-11-22T13:27:41.283Z,100544.63
2022-11-22T13:30:20.794Z,100544.53
2022-11-22T13:32:56.723Z,100548.88
2022-11-22T13:35:33.572Z,100552.34
2022-11-22T13:38:06.902Z,100546.28
2022-11-22T13:40:45.433Z,100552.38
2022-11-22T13:43:52.242Z,100537.63
2022-11-22T13:46:59.270Z,100537.53
2022-11-22T13:49:48.685Z,100534.91
2022-11-22T13:52:55.263Z,100537.50
2022-11-22T13:55:40.407Z,100527.94
2022-11-22T13:58:52.576Z,100527.09
2022-11-22T14:01:55.505Z,100527.94
2022-11-22T14:04:57.032Z,100533.19
2022-11-22T14:07:46.246Z,100532.34
2022-11-22T14:10:34.182Z,100527.13
2022-11-22T14:13:21.632Z,100532.41
2022-11-22T14:16:11.420Z,100533.22
2022-11-22T14:19:05.583Z,100541.91
2022-11-22T14:21:59.589Z,100543.66
2022-11-22T14:25:14.344Z,100542.75
2022-11-22T14:27:54.531Z,100551.47
2022-11-22T14:30:40.253Z,100546.25
2022-11-22T14:33:19.484Z,100543.63
2022-11-22T14:36:16.072Z,100548.84
2022-11-22T14:38:49.045Z,100554.09
2022-11-22T14:41:50.203Z,100552.34
2022-11-22T14:44:23.056Z,100553.22
2022-11-22T14:46:58.905Z,100544.50
2022-11-22T14:49:43.823Z,100555.81
2022-11-22T14:52:22.748Z,100553.19
2022-11-22T14:54:59.588Z,100554.09
2022-11-22T14:57:35.951Z,100548.94
2022-11-22T15:00:19.792Z,100552.34
2022-11-22T15:03:37.337Z,100550.69
2022-11-22T15:09:15.364Z,100553.31
2022-11-22T15:09:52.455Z,100553.31
2022-11-22T15:13:07.203Z,100560.28
2022-11-22T15:57:34.738Z,100578.78
2022-11-22T16:00:11.945Z,100580.50
2022-11-22T16:02:53.482Z,100577.00
2022-11-22T16:06:09.245Z,100571.78
2022-11-22T16:08:32.439Z,100572.66
2022-11-22T16:11:06.122Z,100577.03
2022-11-22T16:13:38.098Z,100572.75
2022-11-22T16:16:21.272Z,100572.75
2022-11-22T16:18:54.034Z,100582.38
2022-11-22T16:21:31.531Z,100573.69
2022-11-22T16:24:18.523Z,100568.44
2022-11-22T16:26:59.141Z,100573.69
2022-11-22T16:29:33.025Z,100586.75
2022-11-22T16:32:06.921Z,100578.06
2022-11-22T16:34:38.852Z,100579.84
2022-11-22T16:37:26.661Z,100579.03
2022-11-22T16:39:57.039Z,100582.50
2022-11-22T16:42:28.786Z,100572.94
2022-11-22T16:45:04.384Z,100579.91
2022-11-22T16:47:35.393Z,100579.09
2022-11-22T16:50:08.888Z,100586.06
2022-11-22T16:52:40.921Z,100580.88
2022-11-22T16:55:16.743Z,100579.09
2022-11-22T16:57:48.203Z,100580.94
2022-11-22T17:00:19.316Z,100588.81
2022-11-22T17:02:50.752Z,100583.56
2022-11-22T17:05:23.061Z,100586.22
2022-11-22T17:07:56.895Z,100588.03
2022-11-22T17:10:27.273Z,100584.50
2022-11-22T17:12:57.772Z,100582.72
2022-11-22T17:15:29.222Z,100594.94
2022-11-22T17:17:59.892Z,100598.41
2022-11-22T17:20:31.532Z,100589.81
2022-11-22T17:23:03.883Z,100594.97
2022-11-22T17:25:34.654Z,100601.94
2022-11-22T17:28:06.803Z,100596.69
2022-11-22T17:30:37.099Z,100598.44
2022-11-22T17:33:09.287Z,100600.19
2022-11-22T17:35:41.541Z,100592.31
2022-11-22T17:38:14.000Z,100605.38
2022-11-22T17:40:45.182Z,100595.81
2022-11-22T17:43:16.659Z,100594.09
2022-11-22T17:45:47.182Z,100589.72
2022-11-22T17:48:19.271Z,100593.16
2022-11-22T17:50:51.822Z,100594.06
2022-11-22T17:53:23.281Z,100600.97
2022-11-22T17:56:09.963Z,100600.97
2022-11-22T17:58:42.840Z,100596.66
2022-11-22T18:01:15.254Z,100600.13
2022-11-22T18:03:48.290Z,100593.19
2022-11-22T18:06:22.560Z,100602.75
2022-11-22T18:08:53.660Z,100597.53
2022-11-22T18:11:25.892Z,100600.13
2022-11-22T18:14:02.933Z,100599.25
2022-11-22T18:16:34.649Z,100601.91
2022-11-22T18:19:08.607Z,100603.63
2022-11-22T18:21:47.009Z,100602.78
2022-11-22T18:24:23.099Z,100604.47
2022-11-22T18:26:55.633Z,100605.34
2022-11-22T18:29:43.021Z,100607.09
2022-11-22T18:32:15.151Z,100601.91
2022-11-22T18:34:50.731Z,100600.97
2022-11-22T18:37:26.083Z,100594.88
2022-11-22T18:40:02.626Z,100602.69
2022-11-22T18:42:36.880Z,100606.22
2022-11-22T18:45:08.961Z,100610.56
2022-11-22T18:47:45.267Z,100609.66
2022-11-22T18:50:23.330Z,100607.91
2022-11-22T18:53:00.481Z,100607.06
2022-11-22T18:55:31.403Z,100605.31
2022-11-22T18:58:01.822Z,100610.47
2022-11-22T19:00:34.146Z,100607.91
2022-11-22T19:03:07.382Z,100610.47
2022-11-22T19:05:43.412Z,100607.00
2022-11-22T19:08:19.829Z,100600.97
2022-11-22T19:10:59.388Z,100603.56
2022-11-22T19:13:35.372Z,100607.00
2022-11-22T19:16:11.991Z,100603.50
2022-11-22T19:18:44.224Z,100610.47
2022-11-22T19:21:18.043Z,100615.66
2022-11-22T19:23:54.603Z,100621.75
2022-11-22T19:26:28.444Z,100626.94
2022-11-22T19:29:03.291Z,100625.19
2022-11-22T19:31:37.250Z,100623.44
2022-11-22T19:34:10.202Z,100625.13
2022-11-22T19:36:42.465Z,100620.75
2022-11-22T19:39:18.188Z,100620.75
2022-11-22T19:41:51.361Z,100624.25
2022-11-22T19:44:21.962Z,100626.03
2022-11-22T19:46:53.810Z,100629.47
2022-11-22T19:49:23.932Z,100633.88
2022-11-22T19:51:55.538Z,100629.47
2022-11-22T19:54:28.971Z,100631.25
2022-11-22T19:56:59.781Z,100636.44
2022-11-22T19:59:30.489Z,100640.88
2022-11-22T20:02:02.805Z,100646.03
2022-11-22T20:04:33.220Z,100646.94
2022-11-22T20:07:05.539Z,100647.75
2022-11-22T20:09:41.754Z,100642.59
2022-11-22T20:12:13.194Z,100655.66
2022-11-22T20:14:44.519Z,100660.00
2022-11-22T20:17:15.324Z,100661.69
2022-11-22T20:19:46.071Z,100668.66
2022-11-22T20:22:18.602Z,100660.00
2022-11-22T20:24:50.462Z,100663.56
2022-11-22T20:27:24.642Z,100667.88
2022-11-22T20:30:01.551Z,100660.00
2022-11-22T20:32:32.363Z,100665.22
2022-11-22T20:35:02.622Z,100665.16
2022-11-22T20:37:35.896Z,100666.03
2022-11-22T20:40:08.868Z,100663.44
2022-11-22T20:42:40.600Z,100658.22
2022-11-22T20:45:12.583Z,100669.53
2022-11-22T20:47:43.121Z,100674.75
2022-11-22T20:50:13.704Z,100668.72
2022-11-22T20:52:45.624Z,100669.53
2022-11-22T20:55:17.812Z,100667.03
2022-11-22T20:57:50.041Z,100671.34
2022-11-22T21:00:21.033Z,100668.72
2022-11-22T21:02:52.832Z,100672.13
2022-11-22T21:05:23.121Z,100659.06
2022-11-22T21:07:55.312Z,100655.59
2022-11-22T21:10:27.212Z,100659.06
2022-11-22T21:12:58.036Z,100659.03
2022-11-22T21:15:29.783Z,100658.16
2022-11-22T21:18:26.096Z,100662.47
2022-11-22T21:20:55.821Z,100672.97
2022-11-22T21:23:26.652Z,100666.78
2022-11-22T21:25:59.671Z,100667.69
2022-11-22T21:28:30.952Z,100673.78
2022-11-22T21:31:01.410Z,100678.16
2022-11-22T21:33:34.897Z,100678.16
2022-11-22T21:36:08.806Z,100672.94
2022-11-22T21:38:40.102Z,100672.09
2022-11-22T21:44:06.035Z,100656.41
2022-11-22T21:46:37.287Z,100646.81
2022-11-22T21:49:08.555Z,100652.03
2022-11-22T21:51:38.985Z,100652.06
2022-11-22T21:54:11.466Z,100656.38
2022-11-22T21:56:43.206Z,100647.66
2022-11-22T21:59:14.425Z,100657.22
2022-11-22T22:01:47.301Z,100659.78
2022-11-22T22:04:18.215Z,100652.81
2022-11-22T22:06:48.528Z,100650.22
2022-11-22T22:09:20.479Z,100658.88
2022-11-22T22:11:51.985Z,100655.44
2022-11-22T22:14:25.887Z,100653.72
2022-11-22T22:16:57.548Z,100652.78
2022-11-22T22:19:28.793Z,100643.19
2022-11-22T22:22:00.891Z,100650.22
2022-11-22T22:24:32.021Z,100650.19
2022-11-22T22:27:07.447Z,100644.88
2022-11-22T22:29:38.348Z,100651.88
2022-11-22T22:32:10.897Z,100651.03
2022-11-22T22:34:41.768Z,100658.84
2022-11-22T22:37:12.389Z,100663.19
2022-11-22T22:39:44.818Z,100668.44
2022-11-22T22:42:16.856Z,100673.66
2022-11-22T22:44:49.503Z,100671.88
2022-11-22T22:47:19.773Z,100678.84
2022-11-22T22:49:50.595Z,100672.75
2022-11-22T22:52:21.865Z,100668.31
2022-11-22T22:54:52.804Z,100678.84
2022-11-22T22:57:25.795Z,100675.34
2022-11-22T22:59:56.676Z,100674.50
2022-11-22T23:02:27.345Z,100672.66
2022-11-22T23:05:00.403Z,100665.72
2022-11-22T23:07:30.974Z,100665.72
2022-11-22T23:10:02.353Z,100663.94
2022-11-22T23:12:34.753Z,100656.13
2022-11-22T23:15:08.981Z,100652.59
2022-11-22T23:17:39.241Z,100650.00
2022-11-22T23:20:10.831Z,100635.19
2022-11-22T23:22:42.522Z,100636.94
2022-11-22T23:25:13.763Z,100638.72
2022-11-22T23:27:47.783Z,100637.81
2022-11-22T23:30:19.833Z,100631.63
2022-11-22T23:32:52.443Z,100640.25
2022-11-22T23:35:24.723Z,100640.28
2022-11-22T23:37:55.991Z,100635.88
2022-11-22T23:40:27.206Z,100638.50
2022-11-22T23:43:01.253Z,100628.06
2022-11-22T23:45:32.071Z,100640.19
2022-11-22T23:48:02.370Z,100636.69
2022-11-22T23:50:37.493Z,100636.63
2022-11-22T23:53:07.970Z,100638.47
2022-11-22T23:55:43.525Z,100643.66
2022-11-22T23:58:15.911Z,100648.81
